createdAt,value
2022-12-24T00:01:35.856Z,8.00
2022-12-24T00:04:05.727Z,8.00
2022-12-24T00:06:34.018Z,8.10
2022-12-24T00:09:02.034Z,8.10
2022-12-24T00:11:30.037Z,8.20
2022-12-24T00:13:58.002Z,8.20
2022-12-24T00:16:26.097Z,8.20
2022-12-24T00:18:54.030Z,8.20
2022-12-24T00:21:23.492Z,8.20
2022-12-24T00:23:51.849Z,8.30
2022-12-24T00:26:19.776Z,8.20
2022-12-24T00:28:47.750Z,8.30
2022-12-24T00:31:17.407Z,8.30
2022-12-24T00:33:47.333Z,8.30
2022-12-24T00:36:15.389Z,8.30
2022-12-24T00:38:45.418Z,8.40
2022-12-24T00:41:29.458Z,8.40
2022-12-24T00:43:59.632Z,8.40
2022-12-24T00:46:29.185Z,8.30
2022-12-24T00:48:58.052Z,8.40
2022-12-24T00:51:26.676Z,8.40
2022-12-24T00:53:56.685Z,8.40
2022-12-24T00:56:25.273Z,8.30
2022-12-24T00:58:53.756Z,8.30
2022-12-24T01:01:22.403Z,8.40
2022-12-24T01:03:51.387Z,8.40
2022-12-24T01:06:21.179Z,8.30
2022-12-24T01:08:52.515Z,8.30
2022-12-24T01:11:21.937Z,8.30
2022-12-24T01:13:50.025Z,8.30
2022-12-24T01:16:22.554Z,8.30
2022-12-24T01:18:50.876Z,8.20
2022-12-24T01:21:19.099Z,8.20
2022-12-24T01:23:47.141Z,8.20
2022-12-24T01:26:15.195Z,8.20
2022-12-24T01:28:44.636Z,8.20
2022-12-24T01:31:14.549Z,8.30
2022-12-24T01:33:43.310Z,8.20
2022-12-24T01:36:12.247Z,8.20
2022-12-24T01:38:40.840Z,8.20
2022-12-24T01:41:26.670Z,8.20
2022-12-24T01:43:56.144Z,8.30
2022-12-24T01:46:29.207Z,8.30
2022-12-24T01:49:00.125Z,8.30
2022-12-24T01:51:35.821Z,8.30
2022-12-24T01:54:06.398Z,8.20
2022-12-24T01:56:36.703Z,8.30
2022-12-24T01:59:09.503Z,8.30
2022-12-24T02:01:38.064Z,8.30
2022-12-24T02:04:12.919Z,8.20
2022-12-24T02:06:41.770Z,8.20
2022-12-24T02:09:09.925Z,8.20
2022-12-24T02:11:40.985Z,8.20
2022-12-24T02:14:10.434Z,8.20
2022-12-24T02:16:50.316Z,8.20
2022-12-24T02:19:44.247Z,8.20
2022-12-24T02:22:18.086Z,8.30
2022-12-24T02:25:15.871Z,8.20
2022-12-24T02:27:56.465Z,8.20
2022-12-24T02:30:33.250Z,8.30
2022-12-24T02:33:12.048Z,8.30
2022-12-24T02:35:47.501Z,8.30
2022-12-24T02:38:21.240Z,8.20
2022-12-24T02:40:53.436Z,8.20
2022-12-24T02:43:24.651Z,8.20
2022-12-24T02:45:59.533Z,8.20
2022-12-24T02:48:30.215Z,8.20
2022-12-24T02:51:00.356Z,8.10
2022-12-24T02:53:28.393Z,8.20
2022-12-24T02:56:32.713Z,8.10
2022-12-24T02:59:14.076Z,8.10
2022-12-24T03:01:51.815Z,8.10
2022-12-24T03:04:39.759Z,8.10
2022-12-24T03:07:16.621Z,8.00
2022-12-24T03:10:07.892Z,8.00
2022-12-24T03:12:40.319Z,8.10
2022-12-24T03:15:10.324Z,8.10
2022-12-24T03:17:43.148Z,8.00
2022-12-24T03:20:14.478Z,8.10
2022-12-24T03:22:42.778Z,8.10
2022-12-24T03:25:11.244Z,8.10
2022-12-24T03:27:40.586Z,8.10
2022-12-24T03:30:13.665Z,8.10
2022-12-24T03:32:43.615Z,8.00
2022-12-24T03:35:12.691Z,8.00
2022-12-24T03:37:40.697Z,8.00
2022-12-24T03:40:10.622Z,7.90
2022-12-24T03:42:38.550Z,8.00
2022-12-24T03:45:08.009Z,7.90
2022-12-24T03:47:36.266Z,7.90
2022-12-24T03:50:06.528Z,7.90
2022-12-24T03:52:34.515Z,7.90
2022-12-24T03:55:02.445Z,7.90
2022-12-24T03:57:30.523Z,7.90
2022-12-24T03:59:59.034Z,7.90
2022-12-24T04:02:27.380Z,8.00
2022-12-24T04:04:57.012Z,8.00
2022-12-24T04:07:27.313Z,7.90
2022-12-24T04:09:55.632Z,7.90
2022-12-24T04:12:24.788Z,7.90
2022-12-24T04:14:53.385Z,7.90
2022-12-24T04:17:21.346Z,7.90
2022-12-24T04:19:49.336Z,7.90
2022-12-24T04:22:17.341Z,7.90
2022-12-24T04:24:47.125Z,7.90
2022-12-24T04:27:15.168Z,7.90
2022-12-24T04:29:43.333Z,7.90
2022-12-24T04:32:11.691Z,7.90
2022-12-24T04:34:39.846Z,7.90
2022-12-24T04:37:08.119Z,7.90
2022-12-24T04:39:36.265Z,7.90
2022-12-24T04:42:06.174Z,7.90
2022-12-24T04:44:34.249Z,7.90
2022-12-24T04:47:02.445Z,7.90
2022-12-24T04:49:30.511Z,7.80
2022-12-24T04:51:58.583Z,7.90
2022-12-24T04:54:27.111Z,7.80
2022-12-24T04:56:55.251Z,7.80
2022-12-24T04:59:24.921Z,7.80
2022-12-24T05:01:53.248Z,7.80
2022-12-24T05:04:21.432Z,7.70
2022-12-24T05:06:50.043Z,7.70
2022-12-24T05:09:18.102Z,7.70
2022-12-24T05:11:46.337Z,7.70
2022-12-24T05:14:14.617Z,7.70
2022-12-24T05:16:45.098Z,7.70
2022-12-24T05:19:13.297Z,7.70
2022-12-24T05:21:41.572Z,7.60
2022-12-24T05:24:43.749Z,7.60
2022-12-24T05:27:11.741Z,7.60
2022-12-24T05:29:39.779Z,7.60
2022-12-24T05:32:09.507Z,7.50
2022-12-24T05:34:37.542Z,7.50
2022-12-24T05:37:05.688Z,7.40
2022-12-24T05:39:33.657Z,7.30
2022-12-24T05:42:01.785Z,7.20
2022-12-24T05:44:29.785Z,7.20
2022-12-24T05:46:57.831Z,7.20
2022-12-24T05:49:27.243Z,7.10
2022-12-24T05:51:55.429Z,6.90
2022-12-24T05:54:23.638Z,6.90
2022-12-24T05:56:51.639Z,6.80
2022-12-24T05:59:19.619Z,6.60
2022-12-24T06:01:48.416Z,6.60
2022-12-24T06:04:18.556Z,6.60
2022-12-24T06:06:49.878Z,6.70
2022-12-24T06:09:18.146Z,6.70
2022-12-24T06:11:46.196Z,6.80
2022-12-24T06:14:14.408Z,6.80
2022-12-24T06:16:42.379Z,6.90
2022-12-24T06:19:10.524Z,6.90
2022-12-24T06:21:38.686Z,7.00
2022-12-24T06:24:08.955Z,7.00
2022-12-24T06:26:37.086Z,7.00
2022-12-24T06:29:05.043Z,7.00
2022-12-24T06:31:33.230Z,7.10
2022-12-24T06:34:01.546Z,7.10
2022-12-24T06:36:29.624Z,7.10
2022-12-24T06:38:58.499Z,7.10
2022-12-24T06:41:28.177Z,7.10
2022-12-24T06:43:56.318Z,7.10
2022-12-24T06:46:24.885Z,7.00
2022-12-24T06:48:55.064Z,7.10
2022-12-24T06:51:23.497Z,7.10
2022-12-24T06:53:51.714Z,7.00
2022-12-24T06:56:21.551Z,7.00
2022-12-24T06:58:52.177Z,7.00
2022-12-24T07:01:21.705Z,7.00
2022-12-24T07:03:50.001Z,6.90
2022-12-24T07:06:21.312Z,6.90
2022-12-24T07:08:49.789Z,6.90
2022-12-24T07:11:18.177Z,6.80
2022-12-24T07:13:46.987Z,6.80
2022-12-24T07:16:16.897Z,6.70
2022-12-24T07:18:45.282Z,6.80
2022-12-24T07:21:13.829Z,6.80
2022-12-24T07:23:41.919Z,6.80
2022-12-24T07:26:10.028Z,6.80
2022-12-24T07:28:38.285Z,6.80
2022-12-24T07:31:07.133Z,6.70
2022-12-24T07:33:36.680Z,6.60
2022-12-24T07:36:07.881Z,6.70
2022-12-24T07:38:39.795Z,6.70
2022-12-24T07:41:07.919Z,6.70
2022-12-24T07:43:38.588Z,6.70
2022-12-24T07:46:07.091Z,6.70
2022-12-24T07:48:36.918Z,6.80
2022-12-24T07:51:05.784Z,6.70
2022-12-24T07:53:33.993Z,6.70
2022-12-24T07:56:06.176Z,6.80
2022-12-24T07:58:37.097Z,6.80
2022-12-24T08:01:05.262Z,6.80
2022-12-24T08:03:33.338Z,6.90
2022-12-24T08:06:02.732Z,7.10
2022-12-24T08:08:31.132Z,7.10
2022-12-24T08:11:03.698Z,7.20
2022-12-24T08:13:32.063Z,7.10
2022-12-24T08:16:00.607Z,7.00
2022-12-24T08:18:28.971Z,6.90
2022-12-24T08:20:56.939Z,6.90
2022-12-24T08:23:26.334Z,6.90
2022-12-24T08:25:54.514Z,6.80
2022-12-24T08:28:22.839Z,6.90
2022-12-24T08:30:52.063Z,7.00
2022-12-24T08:33:21.347Z,7.00
2022-12-24T08:35:50.224Z,7.10
2022-12-24T08:38:18.411Z,7.20
2022-12-24T08:40:50.540Z,7.20
2022-12-24T08:43:19.638Z,7.30
2022-12-24T08:45:49.317Z,7.40
2022-12-24T08:48:17.760Z,7.40
2022-12-24T08:50:46.736Z,7.50
2022-12-24T08:53:17.207Z,7.50
2022-12-24T08:55:53.661Z,7.60
2022-12-24T08:58:23.940Z,7.70
2022-12-24T09:00:52.050Z,7.70
2022-12-24T09:03:27.074Z,7.80
2022-12-24T09:05:55.866Z,7.90
2022-12-24T09:08:23.847Z,8.00
2022-12-24T09:10:53.367Z,8.00
2022-12-24T09:13:24.242Z,8.00
2022-12-24T09:15:56.081Z,8.00
2022-12-24T09:18:24.350Z,8.00
2022-12-24T09:20:56.997Z,8.20
2022-12-24T09:23:25.344Z,8.20
2022-12-24T09:25:54.995Z,8.00
2022-12-24T09:28:23.422Z,8.00
2022-12-24T09:31:01.527Z,7.90
2022-12-24T09:33:32.020Z,7.80
2022-12-24T09:36:01.184Z,7.80
2022-12-24T09:38:29.656Z,7.70
2022-12-24T09:41:03.795Z,7.60
2022-12-24T09:43:38.147Z,7.70
2022-12-24T09:46:14.620Z,7.70
2022-12-24T09:48:46.626Z,7.70
2022-12-24T09:51:22.570Z,7.70
2022-12-24T09:53:53.278Z,7.60
2022-12-24T09:56:27.803Z,7.70
2022-12-24T09:59:00.095Z,7.60
2022-12-24T10:01:31.825Z,7.70
2022-12-24T10:04:04.148Z,7.80
2022-12-24T10:06:38.643Z,8.00
2022-12-24T10:09:18.043Z,8.10
2022-12-24T10:11:55.197Z,8.20
2022-12-24T10:14:39.843Z,8.30
2022-12-24T10:17:24.106Z,8.30
2022-12-24T10:20:01.434Z,8.40
2022-12-24T10:22:38.275Z,8.40
2022-12-24T10:25:16.341Z,8.50
2022-12-24T10:27:47.804Z,8.50
2022-12-24T10:30:20.164Z,8.50
2022-12-24T10:32:50.824Z,8.60
2022-12-24T10:35:24.112Z,8.60
2022-12-24T10:37:53.938Z,8.60
2022-12-24T10:40:31.924Z,8.60
2022-12-24T10:43:07.345Z,8.60
2022-12-24T10:45:40.984Z,8.50
2022-12-24T10:48:12.919Z,8.50
2022-12-24T10:50:44.252Z,8.40
2022-12-24T10:53:19.200Z,8.50
2022-12-24T10:55:49.214Z,8.60
2022-12-24T10:58:21.355Z,8.70
2022-12-24T11:00:55.941Z,8.80
2022-12-24T11:03:32.648Z,9.00
2022-12-24T11:06:10.950Z,9.00
2022-12-24T11:08:44.208Z,8.90
2022-12-24T11:11:17.803Z,9.00
2022-12-24T11:13:59.197Z,9.00
2022-12-24T11:16:38.498Z,9.00
2022-12-24T11:19:19.582Z,9.00
2022-12-24T11:21:48.677Z,9.00
2022-12-24T11:24:53.750Z,9.00
2022-12-24T11:27:44.683Z,8.90
2022-12-24T11:30:40.190Z,9.00
2022-12-24T11:33:22.471Z,9.10
2022-12-24T11:35:58.583Z,9.10
2022-12-24T11:38:29.396Z,9.00
2022-12-24T11:41:04.245Z,9.10
2022-12-24T11:43:47.671Z,9.10
2022-12-24T11:46:23.239Z,9.10
2022-12-24T11:49:17.158Z,9.10
2022-12-24T11:52:15.136Z,9.00
2022-12-24T11:54:52.353Z,9.00
2022-12-24T11:57:25.203Z,9.10
2022-12-24T11:59:53.453Z,9.10
2022-12-24T12:02:34.878Z,9.10
2022-12-24T12:05:12.251Z,9.00
2022-12-24T12:07:41.312Z,9.00
2022-12-24T12:10:19.715Z,9.10
2022-12-24T12:12:57.006Z,9.00
2022-12-24T12:15:35.201Z,9.10
2022-12-24T12:18:23.260Z,9.10
2022-12-24T12:20:57.939Z,9.20
2022-12-24T12:23:31.334Z,9.50
2022-12-24T12:26:02.952Z,9.70
2022-12-24T12:28:37.535Z,9.70
2022-12-24T12:31:21.751Z,9.60
2022-12-24T12:33:57.784Z,9.50
2022-12-24T12:36:29.625Z,9.60
2022-12-24T12:38:57.879Z,9.70
